sensor_id;sensor_type;location;lat;lon;timestamp;P1;durP1;ratioP1;P2;durP2;ratioP2
67193;SDS011;54121;53.508;49.422;2023-01-05T00:00:13;4.25;;;2.40;;
67193;SDS011;54121;53.508;49.422;2023-01-05T00:02:49;7.90;;;3.05;;
67193;SDS011;54121;53.508;49.422;2023-01-05T00:05:26;5.25;;;2.45;;
67193;SDS011;54121;53.508;49.422;2023-01-05T00:08:03;3.63;;;2.15;;
67193;SDS011;54121;53.508;49.422;2023-01-05T00:10:40;6.13;;;2.63;;
67193;SDS011;54121;53.508;49.422;2023-01-05T00:13:34;4.30;;;1.92;;
67193;SDS011;54121;53.508;49.422;2023-01-05T00:16:29;4.75;;;2.35;;
67193;SDS011;54121;53.508;49.422;2023-01-05T00:19:24;6.20;;;2.25;;
67193;SDS011;54121;53.508;49.422;2023-01-05T00:22:20;3.28;;;2.25;;
67193;SDS011;54121;53.508;49.422;2023-01-05T00:25:08;3.92;;;2.22;;
67193;SDS011;54121;53.508;49.422;2023-01-05T00:27:47;2.65;;;2.13;;
67193;SDS011;54121;53.508;49.422;2023-01-05T00:30:31;5.10;;;2.95;;
67193;SDS011;54121;53.508;49.422;2023-01-05T00:33:12;6.20;;;2.28;;
67193;SDS011;54121;53.508;49.422;2023-01-05T00:35:50;6.33;;;2.43;;
67193;SDS011;54121;53.508;49.422;2023-01-05T00:38:27;6.13;;;2.60;;
67193;SDS011;54121;53.508;49.422;2023-01-05T00:41:03;6.43;;;2.45;;
67193;SDS011;54121;53.508;49.422;2023-01-05T00:43:40;6.43;;;3.25;;
67193;SDS011;54121;53.508;49.422;2023-01-05T00:46:17;8.02;;;3.17;;
67193;SDS011;54121;53.508;49.422;2023-01-05T00:48:53;4.45;;;2.35;;
67193;SDS011;54121;53.508;49.422;2023-01-05T00:51:30;4.15;;;1.88;;
67193;SDS011;54121;53.508;49.422;2023-01-05T00:54:07;4.85;;;2.28;;
67193;SDS011;54121;53.508;49.422;2023-01-05T00:56:45;3.33;;;1.92;;
67193;SDS011;54121;53.508;49.422;2023-01-05T01:02:00;5.72;;;2.47;;
67193;SDS011;54121;53.508;49.422;2023-01-05T01:04:37;4.55;;;2.53;;
67193;SDS011;54121;53.508;49.422;2023-01-05T01:07:14;4.75;;;2.65;;
67193;SDS011;54121;53.508;49.422;2023-01-05T01:09:50;5.57;;;2.33;;
67193;SDS011;54121;53.508;49.422;2023-01-05T01:12:27;6.10;;;2.45;;
67193;SDS011;54121;53.508;49.422;2023-01-05T01:15:04;5.38;;;2.65;;
67193;SDS011;54121;53.508;49.422;2023-01-05T01:17:42;5.55;;;2.40;;
67193;SDS011;54121;53.508;49.422;2023-01-05T01:20:19;6.03;;;2.75;;
67193;SDS011;54121;53.508;49.422;2023-01-05T01:22:56;7.97;;;2.90;;
67193;SDS011;54121;53.508;49.422;2023-01-05T01:25:36;3.78;;;2.50;;
67193;SDS011;54121;53.508;49.422;2023-01-05T01:28:14;6.60;;;2.65;;
67193;SDS011;54121;53.508;49.422;2023-01-05T01:30:50;5.57;;;2.80;;
67193;SDS011;54121;53.508;49.422;2023-01-05T01:33:27;4.13;;;2.35;;
67193;SDS011;54121;53.508;49.422;2023-01-05T01:36:05;5.45;;;2.78;;
67193;SDS011;54121;53.508;49.422;2023-01-05T01:38:42;5.90;;;2.40;;
67193;SDS011;54121;53.508;49.422;2023-01-05T01:41:19;3.88;;;2.20;;
67193;SDS011;54121;53.508;49.422;2023-01-05T01:43:56;7.25;;;2.78;;
67193;SDS011;54121;53.508;49.422;2023-01-05T01:46:33;5.28;;;2.67;;
67193;SDS011;54121;53.508;49.422;2023-01-05T01:49:11;4.97;;;2.38;;
67193;SDS011;54121;53.508;49.422;2023-01-05T01:51:47;4.35;;;2.42;;
67193;SDS011;54121;53.508;49.422;2023-01-05T01:54:24;7.57;;;2.50;;
67193;SDS011;54121;53.508;49.422;2023-01-05T01:57:01;4.03;;;2.63;;
67193;SDS011;54121;53.508;49.422;2023-01-05T01:59:39;4.53;;;2.42;;
67193;SDS011;54121;53.508;49.422;2023-01-05T02:02:16;4.50;;;2.22;;
67193;SDS011;54121;53.508;49.422;2023-01-05T02:04:53;5.20;;;2.10;;
67193;SDS011;54121;53.508;49.422;2023-01-05T02:07:36;6.03;;;2.70;;
67193;SDS011;54121;53.508;49.422;2023-01-05T02:10:19;5.13;;;2.58;;
67193;SDS011;54121;53.508;49.422;2023-01-05T02:16:06;4.90;;;2.80;;
67193;SDS011;54121;53.508;49.422;2023-01-05T02:18:58;3.65;;;2.35;;
67193;SDS011;54121;53.508;49.422;2023-01-05T02:21:45;5.05;;;2.78;;
67193;SDS011;54121;53.508;49.422;2023-01-05T02:24:54;3.80;;;1.80;;
67193;SDS011;54121;53.508;49.422;2023-01-05T02:28:16;2.53;;;1.88;;
67193;SDS011;54121;53.508;49.422;2023-01-05T02:31:02;4.55;;;2.13;;
67193;SDS011;54121;53.508;49.422;2023-01-05T02:39:55;2.63;;;1.33;;
67193;SDS011;54121;53.508;49.422;2023-01-05T02:42:34;1.65;;;1.23;;
67193;SDS011;54121;53.508;49.422;2023-01-05T02:45:14;3.28;;;1.73;;
67193;SDS011;54121;53.508;49.422;2023-01-05T02:47:51;1.08;;;0.80;;
67193;SDS011;54121;53.508;49.422;2023-01-05T02:50:36;2.67;;;1.67;;
67193;SDS011;54121;53.508;49.422;2023-01-05T02:53:32;3.33;;;1.63;;
67193;SDS011;54121;53.508;49.422;2023-01-05T02:56:19;0.52;;;0.50;;
67193;SDS011;54121;53.508;49.422;2023-01-05T02:59:08;2.22;;;1.17;;
67193;SDS011;54121;53.508;49.422;2023-01-05T03:02:02;0.88;;;0.60;;
67193;SDS011;54121;53.508;49.422;2023-01-05T03:05:17;1.80;;;1.17;;
67193;SDS011;54121;53.508;49.422;2023-01-05T03:07:52;4.03;;;0.85;;
67193;SDS011;54121;53.508;49.422;2023-01-05T03:10:46;2.97;;;1.50;;
67193;SDS011;54121;53.508;49.422;2023-01-05T03:13:58;2.30;;;0.98;;
67193;SDS011;54121;53.508;49.422;2023-01-05T03:16:55;1.80;;;0.80;;
67193;SDS011;54121;53.508;49.422;2023-01-05T03:19:33;1.70;;;1.10;;
67193;SDS011;54121;53.508;49.422;2023-01-05T03:22:15;3.70;;;1.15;;
67193;SDS011;54121;53.508;49.422;2023-01-05T03:25:19;2.80;;;1.30;;
67193;SDS011;54121;53.508;49.422;2023-01-05T03:28:18;0.98;;;0.80;;
67193;SDS011;54121;53.508;49.422;2023-01-05T03:34:20;1.70;;;0.85;;
67193;SDS011;54121;53.508;49.422;2023-01-05T03:37:32;2.85;;;1.05;;
67193;SDS011;54121;53.508;49.422;2023-01-05T03:40:14;1.75;;;1.05;;
67193;SDS011;54121;53.508;49.422;2023-01-05T03:42:56;3.15;;;1.15;;
67193;SDS011;54121;53.508;49.422;2023-01-05T03:45:41;2.63;;;1.52;;
67193;SDS011;54121;53.508;49.422;2023-01-05T03:48:30;6.13;;;1.25;;
67193;SDS011;54121;53.508;49.422;2023-01-05T03:51:08;3.63;;;1.42;;
67193;SDS011;54121;53.508;49.422;2023-01-05T03:53:45;2.35;;;0.95;;
67193;SDS011;54121;53.508;49.422;2023-01-05T03:56:21;3.30;;;1.42;;
67193;SDS011;54121;53.508;49.422;2023-01-05T03:58:58;2.05;;;1.10;;
67193;SDS011;54121;53.508;49.422;2023-01-05T04:01:35;2.58;;;1.20;;
67193;SDS011;54121;53.508;49.422;2023-01-05T04:04:12;2.15;;;1.10;;
67193;SDS011;54121;53.508;49.422;2023-01-05T04:06:49;2.03;;;1.05;;
67193;SDS011;54121;53.508;49.422;2023-01-05T04:09:25;4.20;;;1.50;;
67193;SDS011;54121;53.508;49.422;2023-01-05T04:12:02;2.00;;;0.80;;
67193;SDS011;54121;53.508;49.422;2023-01-05T04:14:39;3.45;;;1.23;;
67193;SDS011;54121;53.508;49.422;2023-01-05T04:17:15;3.55;;;1.38;;
67193;SDS011;54121;53.508;49.422;2023-01-05T04:19:52;3.15;;;1.63;;
67193;SDS011;54121;53.508;49.422;2023-01-05T04:22:28;2.60;;;1.58;;
67193;SDS011;54121;53.508;49.422;2023-01-05T04:25:05;2.30;;;1.30;;
67193;SDS011;54121;53.508;49.422;2023-01-05T04:27:42;1.90;;;1.25;;
67193;SDS011;54121;53.508;49.422;2023-01-05T04:30:19;2.42;;;1.27;;
67193;SDS011;54121;53.508;49.422;2023-01-05T04:32:56;4.30;;;1.45;;
67193;SDS011;54121;53.508;49.422;2023-01-05T04:35:33;4.45;;;1.70;;
67193;SDS011;54121;53.508;49.422;2023-01-05T04:38:10;2.33;;;1.52;;
67193;SDS011;54121;53.508;49.422;2023-01-05T04:40:50;3.15;;;1.60;;
67193;SDS011;54121;53.508;49.422;2023-01-05T04:43:27;5.38;;;1.90;;
67193;SDS011;54121;53.508;49.422;2023-01-05T04:46:03;2.65;;;1.42;;
67193;SDS011;54121;53.508;49.422;2023-01-05T04:48:40;1.98;;;1.13;;
67193;SDS011;54121;53.508;49.422;2023-01-05T04:51:17;1.42;;;1.10;;
67193;SDS011;54121;53.508;49.422;2023-01-05T04:53:53;3.03;;;1.25;;
67193;SDS011;54121;53.508;49.422;2023-01-05T04:56:30;3.85;;;1.50;;
67193;SDS011;54121;53.508;49.422;2023-01-05T04:59:07;2.60;;;1.67;;
67193;SDS011;54121;53.508;49.422;2023-01-05T05:01:44;2.22;;;1.50;;
67193;SDS011;54121;53.508;49.422;2023-01-05T05:04:20;2.45;;;1.50;;
67193;SDS011;54121;53.508;49.422;2023-01-05T05:06:57;3.80;;;1.30;;
67193;SDS011;54121;53.508;49.422;2023-01-05T05:09:34;3.97;;;1.50;;
67193;SDS011;54121;53.508;49.422;2023-01-05T05:12:11;2.78;;;1.55;;
67193;SDS011;54121;53.508;49.422;2023-01-05T05:14:48;2.42;;;1.25;;
67193;SDS011;54121;53.508;49.422;2023-01-05T05:17:25;4.47;;;1.77;;
67193;SDS011;54121;53.508;49.422;2023-01-05T05:20:02;2.90;;;1.45;;
67193;SDS011;54121;53.508;49.422;2023-01-05T05:22:40;2.55;;;1.60;;
67193;SDS011;54121;53.508;49.422;2023-01-05T05:25:16;1.95;;;1.10;;
67193;SDS011;54121;53.508;49.422;2023-01-05T05:27:53;3.50;;;1.30;;
67193;SDS011;54121;53.508;49.422;2023-01-05T05:30:30;2.63;;;1.27;;
67193;SDS011;54121;53.508;49.422;2023-01-05T05:33:07;2.15;;;1.38;;
67193;SDS011;54121;53.508;49.422;2023-01-05T05:35:44;2.63;;;1.67;;
67193;SDS011;54121;53.508;49.422;2023-01-05T05:38:20;4.53;;;1.38;;
67193;SDS011;54121;53.508;49.422;2023-01-05T05:40:57;4.22;;;1.55;;
67193;SDS011;54121;53.508;49.422;2023-01-05T05:43:34;5.10;;;1.77;;
67193;SDS011;54121;53.508;49.422;2023-01-05T05:46:11;2.08;;;1.40;;
67193;SDS011;54121;53.508;49.422;2023-01-05T05:48:47;2.53;;;1.60;;
67193;SDS011;54121;53.508;49.422;2023-01-05T05:51:24;2.10;;;1.63;;
67193;SDS011;54121;53.508;49.422;2023-01-05T05:54:02;2.08;;;1.38;;
67193;SDS011;54121;53.508;49.422;2023-01-05T05:56:38;3.30;;;1.65;;
67193;SDS011;54121;53.508;49.422;2023-01-05T05:59:15;4.50;;;1.55;;
67193;SDS011;54121;53.508;49.422;2023-01-05T06:01:52;3.72;;;1.70;;
67193;SDS011;54121;53.508;49.422;2023-01-05T06:04:29;5.13;;;2.00;;
67193;SDS011;54121;53.508;49.422;2023-01-05T06:07:05;3.22;;;2.00;;
67193;SDS011;54121;53.508;49.422;2023-01-05T06:09:42;1.95;;;1.25;;
67193;SDS011;54121;53.508;49.422;2023-01-05T06:12:19;2.65;;;1.65;;
67193;SDS011;54121;53.508;49.422;2023-01-05T06:14:56;3.10;;;1.73;;
67193;SDS011;54121;53.508;49.422;2023-01-05T06:17:32;3.97;;;1.35;;
67193;SDS011;54121;53.508;49.422;2023-01-05T06:20:09;3.45;;;1.52;;
67193;SDS011;54121;53.508;49.422;2023-01-05T06:22:46;5.57;;;1.67;;
67193;SDS011;54121;53.508;49.422;2023-01-05T06:25:22;2.88;;;1.60;;
67193;SDS011;54121;53.508;49.422;2023-01-05T06:27:59;5.40;;;2.03;;
67193;SDS011;54121;53.508;49.422;2023-01-05T06:30:36;2.53;;;1.42;;
67193;SDS011;54121;53.508;49.422;2023-01-05T06:33:13;2.33;;;1.27;;
67193;SDS011;54121;53.508;49.422;2023-01-05T06:35:53;4.57;;;1.20;;
67193;SDS011;54121;53.508;49.422;2023-01-05T06:38:30;2.90;;;1.25;;
67193;SDS011;54121;53.508;49.422;2023-01-05T06:41:07;2.22;;;1.55;;
67193;SDS011;54121;53.508;49.422;2023-01-05T06:43:43;1.17;;;1.00;;
67193;SDS011;54121;53.508;49.422;2023-01-05T06:46:21;3.00;;;1.40;;
67193;SDS011;54121;53.508;49.422;2023-01-05T06:48:57;2.65;;;1.33;;
67193;SDS011;54121;53.508;49.422;2023-01-05T06:51:34;4.15;;;1.45;;
67193;SDS011;54121;53.508;49.422;2023-01-05T06:54:11;2.30;;;1.70;;
67193;SDS011;54121;53.508;49.422;2023-01-05T06:56:47;2.05;;;1.40;;
67193;SDS011;54121;53.508;49.422;2023-01-05T06:59:24;3.83;;;2.08;;
67193;SDS011;54121;53.508;49.422;2023-01-05T07:02:01;3.20;;;1.50;;
67193;SDS011;54121;53.508;49.422;2023-01-05T07:04:38;2.83;;;0.98;;
67193;SDS011;54121;53.508;49.422;2023-01-05T07:07:14;1.73;;;1.05;;
67193;SDS011;54121;53.508;49.422;2023-01-05T07:09:52;2.25;;;1.38;;
67193;SDS011;54121;53.508;49.422;2023-01-05T07:12:29;2.08;;;1.27;;
67193;SDS011;54121;53.508;49.422;2023-01-05T07:15:05;1.67;;;1.45;;
67193;SDS011;54121;53.508;49.422;2023-01-05T07:17:43;2.30;;;1.45;;
67193;SDS011;54121;53.508;49.422;2023-01-05T07:20:19;2.28;;;1.70;;
67193;SDS011;54121;53.508;49.422;2023-01-05T07:22:56;6.55;;;1.73;;
67193;SDS011;54121;53.508;49.422;2023-01-05T07:25:33;2.28;;;1.50;;
67193;SDS011;54121;53.508;49.422;2023-01-05T07:28:09;2.85;;;1.60;;
67193;SDS011;54121;53.508;49.422;2023-01-05T07:30:49;2.38;;;1.25;;
67193;SDS011;54121;53.508;49.422;2023-01-05T07:33:27;2.67;;;1.42;;
67193;SDS011;54121;53.508;49.422;2023-01-05T07:36:04;2.50;;;1.88;;
67193;SDS011;54121;53.508;49.422;2023-01-05T07:38:41;3.78;;;1.38;;
67193;SDS011;54121;53.508;49.422;2023-01-05T07:41:18;2.35;;;1.70;;
67193;SDS011;54121;53.508;49.422;2023-01-05T07:43:55;2.42;;;1.88;;
67193;SDS011;54121;53.508;49.422;2023-01-05T07:46:32;3.17;;;1.90;;
67193;SDS011;54121;53.508;49.422;2023-01-05T07:49:08;5.15;;;2.40;;
67193;SDS011;54121;53.508;49.422;2023-01-05T07:51:46;7.07;;;3.88;;
67193;SDS011;54121;53.508;49.422;2023-01-05T07:54:23;3.28;;;1.83;;
67193;SDS011;54121;53.508;49.422;2023-01-05T07:57:00;3.25;;;2.00;;
67193;SDS011;54121;53.508;49.422;2023-01-05T07:59:36;2.58;;;2.05;;
67193;SDS011;54121;53.508;49.422;2023-01-05T08:02:13;3.90;;;1.58;;
67193;SDS011;54121;53.508;49.422;2023-01-05T08:04:49;3.58;;;1.38;;
67193;SDS011;54121;53.508;49.422;2023-01-05T08:07:26;2.33;;;1.58;;
67193;SDS011;54121;53.508;49.422;2023-01-05T08:10:03;2.58;;;1.80;;
67193;SDS011;54121;53.508;49.422;2023-01-05T08:13:02;2.67;;;1.60;;
67193;SDS011;54121;53.508;49.422;2023-01-05T08:15:58;3.17;;;2.08;;
67193;SDS011;54121;53.508;49.422;2023-01-05T08:18:35;2.78;;;1.75;;
67193;SDS011;54121;53.508;49.422;2023-01-05T08:21:11;2.60;;;1.77;;
67193;SDS011;54121;53.508;49.422;2023-01-05T08:23:48;3.92;;;2.00;;
67193;SDS011;54121;53.508;49.422;2023-01-05T08:26:25;4.40;;;2.10;;
67193;SDS011;54121;53.508;49.422;2023-01-05T08:29:02;4.65;;;1.63;;
67193;SDS011;54121;53.508;49.422;2023-01-05T08:31:39;3.13;;;2.10;;
67193;SDS011;54121;53.508;49.422;2023-01-05T08:34:15;4.05;;;1.98;;
67193;SDS011;54121;53.508;49.422;2023-01-05T08:36:52;5.63;;;2.22;;
67193;SDS011;54121;53.508;49.422;2023-01-05T08:39:29;4.47;;;2.53;;
67193;SDS011;54121;53.508;49.422;2023-01-05T08:42:06;4.28;;;2.78;;
67193;SDS011;54121;53.508;49.422;2023-01-05T08:44:42;4.57;;;1.90;;
67193;SDS011;54121;53.508;49.422;2023-01-05T08:47:19;4.82;;;1.85;;
67193;SDS011;54121;53.508;49.422;2023-01-05T08:49:56;5.10;;;2.30;;
67193;SDS011;54121;53.508;49.422;2023-01-05T08:52:33;2.65;;;2.00;;
67193;SDS011;54121;53.508;49.422;2023-01-05T08:55:10;1.63;;;1.50;;
67193;SDS011;54121;53.508;49.422;2023-01-05T08:57:47;4.82;;;2.05;;
67193;SDS011;54121;53.508;49.422;2023-01-05T09:00:23;2.92;;;2.10;;
67193;SDS011;54121;53.508;49.422;2023-01-05T09:03:00;2.28;;;1.85;;
67193;SDS011;54121;53.508;49.422;2023-01-05T09:05:37;2.17;;;1.52;;
67193;SDS011;54121;53.508;49.422;2023-01-05T09:08:14;2.85;;;1.58;;
67193;SDS011;54121;53.508;49.422;2023-01-05T09:10:51;3.45;;;2.60;;
67193;SDS011;54121;53.508;49.422;2023-01-05T09:13:28;2.10;;;1.80;;
67193;SDS011;54121;53.508;49.422;2023-01-05T09:16:09;3.35;;;1.85;;
67193;SDS011;54121;53.508;49.422;2023-01-05T09:18:47;3.30;;;2.25;;
67193;SDS011;54121;53.508;49.422;2023-01-05T09:21:24;3.05;;;2.10;;
67193;SDS011;54121;53.508;49.422;2023-01-05T09:24:01;2.35;;;1.85;;
67193;SDS011;54121;53.508;49.422;2023-01-05T09:26:42;2.50;;;1.85;;
67193;SDS011;54121;53.508;49.422;2023-01-05T09:29:18;2.90;;;1.45;;
67193;SDS011;54121;53.508;49.422;2023-01-05T09:31:55;1.90;;;1.60;;
67193;SDS011;54121;53.508;49.422;2023-01-05T09:34:32;2.20;;;1.67;;
67193;SDS011;54121;53.508;49.422;2023-01-05T09:37:09;1.67;;;1.50;;
67193;SDS011;54121;53.508;49.422;2023-01-05T09:39:46;3.00;;;1.85;;
67193;SDS011;54121;53.508;49.422;2023-01-05T09:42:23;4.68;;;1.77;;
67193;SDS011;54121;53.508;49.422;2023-01-05T09:45:05;1.30;;;1.05;;
67193;SDS011;54121;53.508;49.422;2023-01-05T09:47:43;4.75;;;2.35;;
67193;SDS011;54121;53.508;49.422;2023-01-05T09:50:22;2.75;;;2.35;;
67193;SDS011;54121;53.508;49.422;2023-01-05T09:53:02;10.45;;;2.63;;
67193;SDS011;54121;53.508;49.422;2023-01-05T09:55:40;3.17;;;2.45;;
67193;SDS011;54121;53.508;49.422;2023-01-05T09:58:22;2.85;;;2.33;;
67193;SDS011;54121;53.508;49.422;2023-01-05T10:01:10;2.83;;;1.85;;
67193;SDS011;54121;53.508;49.422;2023-01-05T10:03:53;1.85;;;1.42;;
67193;SDS011;54121;53.508;49.422;2023-01-05T10:06:34;3.35;;;2.30;;
67193;SDS011;54121;53.508;49.422;2023-01-05T10:09:19;1.77;;;1.38;;
67193;SDS011;54121;53.508;49.422;2023-01-05T10:12:04;3.63;;;2.70;;
67193;SDS011;54121;53.508;49.422;2023-01-05T10:15:22;20.30;;;2.83;;
67193;SDS011;54121;53.508;49.422;2023-01-05T10:17:59;4.32;;;2.10;;
67193;SDS011;54121;53.508;49.422;2023-01-05T10:29:31;3.00;;;2.13;;
67193;SDS011;54121;53.508;49.422;2023-01-05T10:32:14;2.92;;;2.00;;
67193;SDS011;54121;53.508;49.422;2023-01-05T10:34:57;2.85;;;2.35;;
67193;SDS011;54121;53.508;49.422;2023-01-05T10:44:26;3.13;;;2.13;;
67193;SDS011;54121;53.508;49.422;2023-01-05T10:47:14;3.38;;;2.35;;
67193;SDS011;54121;53.508;49.422;2023-01-05T10:49:52;4.68;;;2.72;;
67193;SDS011;54121;53.508;49.422;2023-01-05T10:52:29;5.75;;;2.85;;
67193;SDS011;54121;53.508;49.422;2023-01-05T10:55:10;2.95;;;2.35;;
67193;SDS011;54121;53.508;49.422;2023-01-05T10:57:50;4.20;;;2.08;;
67193;SDS011;54121;53.508;49.422;2023-01-05T11:00:40;3.40;;;2.38;;
67193;SDS011;54121;53.508;49.422;2023-01-05T11:03:17;3.63;;;2.20;;
67193;SDS011;54121;53.508;49.422;2023-01-05T11:05:57;43.40;;;3.90;;
67193;SDS011;54121;53.508;49.422;2023-01-05T11:08:35;2.05;;;1.83;;
67193;SDS011;54121;53.508;49.422;2023-01-05T11:11:19;9.35;;;2.25;;
67193;SDS011;54121;53.508;49.422;2023-01-05T11:14:00;2.13;;;1.52;;
67193;SDS011;54121;53.508;49.422;2023-01-05T11:16:37;35.33;;;3.15;;
67193;SDS011;54121;53.508;49.422;2023-01-05T11:19:17;3.13;;;1.95;;
67193;SDS011;54121;53.508;49.422;2023-01-05T11:22:51;3.40;;;2.58;;
67193;SDS011;54121;53.508;49.422;2023-01-05T11:28:09;2.55;;;1.98;;
67193;SDS011;54121;53.508;49.422;2023-01-05T11:31:02;1.10;;;1.00;;
67193;SDS011;54121;53.508;49.422;2023-01-05T11:33:41;3.50;;;1.92;;
67193;SDS011;54121;53.508;49.422;2023-01-05T11:36:20;2.75;;;2.00;;
67193;SDS011;54121;53.508;49.422;2023-01-05T11:38:57;1.98;;;0.98;;
67193;SDS011;54121;53.508;49.422;2023-01-05T11:41:34;1.88;;;1.30;;
67193;SDS011;54121;53.508;49.422;2023-01-05T11:44:16;2.22;;;1.70;;
67193;SDS011;54121;53.508;49.422;2023-01-05T11:46:56;1.65;;;1.55;;
67193;SDS011;54121;53.508;49.422;2023-01-05T11:49:33;3.10;;;1.85;;
67193;SDS011;54121;53.508;49.422;2023-01-05T11:52:33;2.55;;;2.33;;
67193;SDS011;54121;53.508;49.422;2023-01-05T11:58:13;3.47;;;2.15;;
67193;SDS011;54121;53.508;49.422;2023-01-05T12:18:35;2.83;;;2.47;;
67193;SDS011;54121;53.508;49.422;2023-01-05T12:21:37;1.52;;;1.40;;
67193;SDS011;54121;53.508;49.422;2023-01-05T12:27:18;3.20;;;1.95;;
67193;SDS011;54121;53.508;49.422;2023-01-05T12:45:19;3.42;;;2.50;;
67193;SDS011;54121;53.508;49.422;2023-01-05T12:48:24;5.00;;;2.05;;
67193;SDS011;54121;53.508;49.422;2023-01-05T12:51:23;2.63;;;2.20;;
67193;SDS011;54121;53.508;49.422;2023-01-05T12:58:35;3.10;;;2.33;;
67193;SDS011;54121;53.508;49.422;2023-01-05T13:01:32;3.28;;;2.15;;
67193;SDS011;54121;53.508;49.422;2023-01-05T13:04:52;6.25;;;2.85;;
67193;SDS011;54121;53.508;49.422;2023-01-05T13:10:51;2.60;;;1.90;;
67193;SDS011;54121;53.508;49.422;2023-01-05T13:13:50;2.78;;;2.15;;
67193;SDS011;54121;53.508;49.422;2023-01-05T13:16:37;4.43;;;2.70;;
67193;SDS011;54121;53.508;49.422;2023-01-05T13:19:18;3.08;;;2.10;;
67193;SDS011;54121;53.508;49.422;2023-01-05T13:22:28;3.85;;;3.17;;
67193;SDS011;54121;53.508;49.422;2023-01-05T13:25:21;6.22;;;3.28;;
67193;SDS011;54121;53.508;49.422;2023-01-05T13:28:00;3.53;;;2.15;;
67193;SDS011;54121;53.508;49.422;2023-01-05T13:30:38;2.78;;;2.03;;
67193;SDS011;54121;53.508;49.422;2023-01-05T13:36:27;13.80;;;3.08;;
67193;SDS011;54121;53.508;49.422;2023-01-05T13:39:38;5.03;;;3.67;;
67193;SDS011;54121;53.508;49.422;2023-01-05T13:53:54;5.32;;;4.20;;
67193;SDS011;54121;53.508;49.422;2023-01-05T13:56:37;3.15;;;2.85;;
67193;SDS011;54121;53.508;49.422;2023-01-05T13:59:25;4.85;;;3.60;;
67193;SDS011;54121;53.508;49.422;2023-01-05T14:02:19;3.03;;;2.35;;
67193;SDS011;54121;53.508;49.422;2023-01-05T14:05:13;3.10;;;2.58;;
67193;SDS011;54121;53.508;49.422;2023-01-05T14:08:00;3.33;;;2.83;;
67193;SDS011;54121;53.508;49.422;2023-01-05T14:10:40;3.78;;;3.30;;
67193;SDS011;54121;53.508;49.422;2023-01-05T14:13:59;2.33;;;1.73;;
67193;SDS011;54121;53.508;49.422;2023-01-05T14:24:55;4.35;;;2.20;;
67193;SDS011;54121;53.508;49.422;2023-01-05T14:27:32;6.65;;;3.85;;
67193;SDS011;54121;53.508;49.422;2023-01-05T14:39:42;2.00;;;1.65;;
67193;SDS011;54121;53.508;49.422;2023-01-05T14:42:37;3.28;;;2.58;;
67193;SDS011;54121;53.508;49.422;2023-01-05T14:45:19;3.50;;;3.20;;
67193;SDS011;54121;53.508;49.422;2023-01-05T14:48:01;2.72;;;2.17;;
67193;SDS011;54121;53.508;49.422;2023-01-05T14:50:42;3.80;;;3.20;;
67193;SDS011;54121;53.508;49.422;2023-01-05T14:53:38;5.47;;;4.95;;
67193;SDS011;54121;53.508;49.422;2023-01-05T14:56:22;5.20;;;4.70;;
67193;SDS011;54121;53.508;49.422;2023-01-05T14:59:12;5.30;;;3.28;;
67193;SDS011;54121;53.508;49.422;2023-01-05T15:01:59;4.30;;;3.85;;
67193;SDS011;54121;53.508;49.422;2023-01-05T15:04:39;5.43;;;3.00;;
67193;SDS011;54121;53.508;49.422;2023-01-05T15:07:51;3.10;;;2.80;;
67193;SDS011;54121;53.508;49.422;2023-01-05T15:17:23;5.75;;;3.80;;
67193;SDS011;54121;53.508;49.422;2023-01-05T15:34:16;5.00;;;2.78;;
67193;SDS011;54121;53.508;49.422;2023-01-05T15:37:07;5.07;;;2.90;;
67193;SDS011;54121;53.508;49.422;2023-01-05T15:39:53;5.75;;;4.07;;
67193;SDS011;54121;53.508;49.422;2023-01-05T15:45:24;3.27;;;2.37;;
67193;SDS011;54121;53.508;49.422;2023-01-05T15:48:32;4.82;;;3.08;;
67193;SDS011;54121;53.508;49.422;2023-01-05T15:54:16;4.38;;;3.05;;
67193;SDS011;54121;53.508;49.422;2023-01-05T15:57:00;3.80;;;2.78;;
67193;SDS011;54121;53.508;49.422;2023-01-05T15:59:38;2.63;;;1.95;;
67193;SDS011;54121;53.508;49.422;2023-01-05T16:02:16;5.18;;;3.78;;
67193;SDS011;54121;53.508;49.422;2023-01-05T16:08:12;6.50;;;4.35;;
67193;SDS011;54121;53.508;49.422;2023-01-05T16:10:52;6.65;;;5.07;;
67193;SDS011;54121;53.508;49.422;2023-01-05T16:16:25;7.45;;;3.35;;
67193;SDS011;54121;53.508;49.422;2023-01-05T16:19:21;11.15;;;2.38;;
67193;SDS011;54121;53.508;49.422;2023-01-05T16:27:42;6.72;;;4.18;;
67193;SDS011;54121;53.508;49.422;2023-01-05T16:30:26;6.40;;;4.07;;
67193;SDS011;54121;53.508;49.422;2023-01-05T16:35:49;5.55;;;3.78;;
67193;SDS011;54121;53.508;49.422;2023-01-05T16:38:30;4.78;;;3.20;;
67193;SDS011;54121;53.508;49.422;2023-01-05T16:43:56;5.88;;;4.75;;
67193;SDS011;54121;53.508;49.422;2023-01-05T16:46:37;6.43;;;3.55;;
67193;SDS011;54121;53.508;49.422;2023-01-05T16:52:01;5.13;;;3.40;;
67193;SDS011;54121;53.508;49.422;2023-01-05T16:54:41;5.25;;;3.92;;
67193;SDS011;54121;53.508;49.422;2023-01-05T17:06:01;6.63;;;3.88;;
67193;SDS011;54121;53.508;49.422;2023-01-05T17:08:39;4.28;;;2.70;;
67193;SDS011;54121;53.508;49.422;2023-01-05T17:11:16;14.63;;;6.05;;
67193;SDS011;54121;53.508;49.422;2023-01-05T17:13:53;6.43;;;4.13;;
67193;SDS011;54121;53.508;49.422;2023-01-05T17:16:30;7.47;;;5.00;;
67193;SDS011;54121;53.508;49.422;2023-01-05T17:19:14;7.30;;;5.47;;
67193;SDS011;54121;53.508;49.422;2023-01-05T17:21:58;6.15;;;3.33;;
67193;SDS011;54121;53.508;49.422;2023-01-05T17:24:36;8.32;;;4.43;;
67193;SDS011;54121;53.508;49.422;2023-01-05T17:27:13;5.97;;;3.72;;
67193;SDS011;54121;53.508;49.422;2023-01-05T17:29:50;9.13;;;6.18;;
67193;SDS011;54121;53.508;49.422;2023-01-05T17:32:26;6.35;;;4.20;;
67193;SDS011;54121;53.508;49.422;2023-01-05T17:35:03;5.93;;;4.10;;
67193;SDS011;54121;53.508;49.422;2023-01-05T17:37:40;11.55;;;7.38;;
67193;SDS011;54121;53.508;49.422;2023-01-05T17:40:18;8.52;;;5.80;;
67193;SDS011;54121;53.508;49.422;2023-01-05T17:42:55;7.28;;;5.18;;
67193;SDS011;54121;53.508;49.422;2023-01-05T17:45:32;5.95;;;4.45;;
67193;SDS011;54121;53.508;49.422;2023-01-05T17:48:09;8.38;;;5.65;;
67193;SDS011;54121;53.508;49.422;2023-01-05T17:50:46;7.35;;;4.30;;
67193;SDS011;54121;53.508;49.422;2023-01-05T17:53:24;4.45;;;3.53;;
67193;SDS011;54121;53.508;49.422;2023-01-05T17:56:01;9.38;;;7.35;;
67193;SDS011;54121;53.508;49.422;2023-01-05T17:58:38;8.63;;;5.72;;
67193;SDS011;54121;53.508;49.422;2023-01-05T18:01:16;9.52;;;6.93;;
67193;SDS011;54121;53.508;49.422;2023-01-05T18:03:53;10.85;;;9.23;;
67193;SDS011;54121;53.508;49.422;2023-01-05T18:06:30;10.23;;;7.47;;
67193;SDS011;54121;53.508;49.422;2023-01-05T18:09:06;12.98;;;9.40;;
67193;SDS011;54121;53.508;49.422;2023-01-05T18:11:43;7.65;;;4.50;;
67193;SDS011;54121;53.508;49.422;2023-01-05T18:14:20;13.38;;;9.23;;
67193;SDS011;54121;53.508;49.422;2023-01-05T18:16:56;12.05;;;6.88;;
67193;SDS011;54121;53.508;49.422;2023-01-05T18:19:33;6.78;;;3.88;;
67193;SDS011;54121;53.508;49.422;2023-01-05T18:22:10;5.63;;;3.85;;
67193;SDS011;54121;53.508;49.422;2023-01-05T18:24:47;13.38;;;9.52;;
67193;SDS011;54121;53.508;49.422;2023-01-05T18:27:23;11.73;;;7.45;;
67193;SDS011;54121;53.508;49.422;2023-01-05T18:30:03;9.60;;;5.70;;
67193;SDS011;54121;53.508;49.422;2023-01-05T18:32:41;13.05;;;7.50;;
67193;SDS011;54121;53.508;49.422;2023-01-05T18:35:18;11.13;;;5.65;;
67193;SDS011;54121;53.508;49.422;2023-01-05T18:37:54;8.98;;;4.55;;
67193;SDS011;54121;53.508;49.422;2023-01-05T18:40:34;10.57;;;6.75;;
67193;SDS011;54121;53.508;49.422;2023-01-05T18:43:10;11.95;;;6.38;;